createdAt,value
2022-07-26T00:01:59.559Z,54.79
2022-07-26T00:04:33.471Z,54.99
2022-07-26T00:07:07.149Z,54.89
2022-07-26T00:09:43.764Z,54.86
2022-07-26T00:12:20.011Z,54.91
2022-07-26T00:14:53.746Z,55.04
2022-07-26T00:17:27.606Z,54.65
2022-07-26T00:20:01.309Z,54.76
2022-07-26T00:22:39.761Z,54.86
2022-07-26T00:25:13.738Z,55.02
2022-07-26T00:27:47.390Z,55.09
2022-07-26T00:30:21.422Z,55.15
2022-07-26T00:32:55.389Z,55.05
2022-07-26T00:35:29.086Z,55.18
2022-07-26T00:38:02.913Z,55.41
2022-07-26T00:40:37.401Z,55.66
2022-07-26T00:43:10.693Z,55.55
2022-07-26T00:45:44.874Z,55.71
2022-07-26T00:48:18.329Z,55.87
2022-07-26T00:50:52.030Z,55.99
2022-07-26T00:53:26.040Z,56.11
2022-07-26T00:55:59.644Z,56.29
2022-07-26T00:58:33.346Z,56.42
2022-07-26T01:01:06.956Z,56.47
2022-07-26T01:03:41.916Z,56.79
2022-07-26T01:06:15.440Z,56.85
2022-07-26T01:08:49.057Z,56.99
2022-07-26T01:11:22.343Z,57.01
2022-07-26T01:13:56.227Z,57.51
2022-07-26T01:16:30.050Z,57.56
2022-07-26T01:19:03.347Z,57.80
2022-07-26T01:21:36.973Z,58.11
2022-07-26T01:24:11.435Z,58.22
2022-07-26T01:26:45.600Z,58.11
2022-07-26T01:29:19.216Z,58.28
2022-07-26T01:31:53.193Z,58.38
2022-07-26T01:34:26.930Z,58.42
2022-07-26T01:37:00.672Z,58.34
2022-07-26T01:39:33.900Z,58.32
2022-07-26T01:42:07.652Z,58.65
2022-07-26T01:44:40.891Z,58.44
2022-07-26T01:47:14.299Z,58.65
2022-07-26T01:49:48.191Z,58.65
2022-07-26T01:52:22.456Z,58.51
2022-07-26T01:54:58.287Z,58.65
2022-07-26T01:57:32.190Z,58.79
2022-07-26T02:00:07.487Z,58.87
2022-07-26T02:02:41.212Z,58.80
2022-07-26T02:05:15.943Z,59.28
2022-07-26T02:07:49.039Z,59.21
2022-07-26T02:10:23.914Z,59.59
2022-07-26T02:12:59.361Z,59.72
2022-07-26T02:15:32.974Z,59.92
2022-07-26T02:18:06.259Z,59.75
2022-07-26T02:20:40.015Z,59.88
2022-07-26T02:23:14.295Z,59.99
2022-07-26T02:25:48.183Z,59.90
2022-07-26T02:28:21.934Z,59.84
2022-07-26T02:30:55.538Z,60.05
2022-07-26T02:33:30.712Z,59.99
2022-07-26T02:36:04.339Z,60.02
2022-07-26T02:38:37.820Z,60.22
2022-07-26T02:41:11.306Z,60.02
2022-07-26T02:43:44.754Z,60.14
2022-07-26T02:46:18.007Z,60.17
2022-07-26T02:48:52.259Z,60.33
2022-07-26T02:51:25.845Z,60.45
2022-07-26T02:53:59.571Z,60.41
2022-07-26T02:56:33.311Z,60.68
2022-07-26T02:59:06.800Z,60.67
2022-07-26T03:01:40.549Z,60.82
2022-07-26T03:04:13.929Z,60.81
2022-07-26T03:06:46.998Z,61.14
2022-07-26T03:09:20.754Z,61.31
2022-07-26T03:11:55.022Z,61.08
2022-07-26T03:14:28.342Z,61.21
2022-07-26T03:17:01.873Z,61.27
2022-07-26T03:19:35.272Z,61.12
2022-07-26T03:22:08.348Z,61.13
2022-07-26T03:24:41.573Z,61.13
2022-07-26T03:27:15.120Z,60.87
2022-07-26T03:29:48.473Z,60.99
2022-07-26T03:32:21.998Z,60.71
2022-07-26T03:34:55.951Z,60.84
2022-07-26T03:37:45.325Z,60.80
2022-07-26T03:40:21.485Z,60.62
2022-07-26T03:42:55.065Z,60.56
2022-07-26T03:45:29.637Z,60.58
2022-07-26T03:48:02.975Z,60.54
2022-07-26T03:50:36.517Z,60.84
2022-07-26T03:53:09.536Z,60.71
2022-07-26T03:56:00.409Z,60.75
2022-07-26T03:58:33.934Z,60.99
2022-07-26T04:01:07.167Z,60.83
2022-07-26T04:03:44.456Z,60.84
2022-07-26T04:06:23.104Z,60.90
2022-07-26T04:08:57.167Z,61.04
2022-07-26T04:11:30.513Z,61.07
2022-07-26T04:14:03.938Z,61.05
2022-07-26T04:16:42.905Z,61.25
2022-07-26T04:19:18.011Z,61.40
2022-07-26T04:21:51.685Z,61.42
2022-07-26T04:24:25.743Z,61.31
2022-07-26T04:26:59.326Z,61.27
2022-07-26T04:29:32.638Z,61.19
2022-07-26T04:32:06.355Z,61.05
2022-07-26T04:34:40.162Z,61.10
2022-07-26T04:37:13.228Z,60.96
2022-07-26T04:39:48.442Z,61.07
2022-07-26T04:42:25.188Z,60.85
2022-07-26T04:44:58.497Z,60.88
2022-07-26T04:47:32.029Z,60.81
2022-07-26T04:50:06.148Z,60.62
2022-07-26T04:52:39.650Z,60.56
2022-07-26T04:55:14.480Z,60.39
2022-07-26T04:57:48.547Z,60.33
2022-07-26T05:00:25.251Z,60.55
2022-07-26T05:03:00.490Z,60.50
2022-07-26T05:05:35.639Z,60.51
2022-07-26T05:08:09.098Z,60.18
2022-07-26T05:10:44.912Z,59.99
2022-07-26T05:13:18.473Z,59.76
2022-07-26T05:16:03.669Z,59.98
2022-07-26T05:18:49.396Z,59.99
2022-07-26T05:21:23.148Z,59.94
2022-07-26T05:23:56.586Z,59.96
2022-07-26T05:26:30.170Z,60.05
2022-07-26T05:29:03.665Z,59.79
2022-07-26T05:31:36.856Z,58.84
2022-07-26T05:34:10.797Z,57.74
2022-07-26T05:36:44.359Z,57.72
2022-07-26T05:39:18.033Z,57.51
2022-07-26T05:41:51.561Z,57.35
2022-07-26T05:44:25.067Z,56.90
2022-07-26T05:46:59.952Z,56.61
2022-07-26T05:49:40.358Z,56.51
2022-07-26T05:52:14.453Z,56.03
2022-07-26T05:54:47.698Z,56.19
2022-07-26T05:57:21.553Z,56.04
2022-07-26T05:59:54.933Z,56.01
2022-07-26T06:02:28.500Z,55.93
2022-07-26T06:05:01.899Z,56.19
2022-07-26T06:07:35.137Z,55.67
2022-07-26T06:10:10.154Z,55.05
2022-07-26T06:12:43.513Z,55.07
2022-07-26T06:15:16.661Z,54.48
2022-07-26T06:17:50.224Z,54.36
2022-07-26T06:20:23.428Z,53.81
2022-07-26T06:22:58.994Z,53.97
2022-07-26T06:25:32.347Z,53.54
2022-07-26T06:28:08.184Z,53.10
2022-07-26T06:30:41.957Z,53.18
2022-07-26T06:33:16.741Z,52.86
2022-07-26T06:35:50.352Z,52.93
2022-07-26T06:38:23.944Z,52.52
2022-07-26T06:40:57.577Z,52.46
2022-07-26T06:43:31.150Z,52.07
2022-07-26T06:46:04.385Z,51.46
2022-07-26T06:48:38.071Z,51.38
2022-07-26T06:51:15.719Z,50.63
2022-07-26T06:53:49.301Z,50.25
2022-07-26T06:56:23.580Z,49.95
2022-07-26T06:58:57.894Z,48.39
2022-07-26T07:01:51.324Z,47.66
2022-07-26T07:04:24.790Z,47.36
2022-07-26T07:07:02.755Z,46.98
2022-07-26T07:09:39.566Z,47.22
2022-07-26T07:12:13.198Z,46.58
2022-07-26T07:14:46.747Z,47.07
2022-07-26T07:17:22.684Z,47.17
2022-07-26T07:19:56.204Z,46.97
2022-07-26T07:22:29.711Z,47.23
2022-07-26T07:25:03.121Z,46.51
2022-07-26T07:27:40.196Z,45.16
2022-07-26T07:30:17.430Z,45.18
2022-07-26T07:32:50.926Z,45.10
2022-07-26T07:35:24.636Z,44.24
2022-07-26T07:38:05.465Z,44.92
2022-07-26T07:40:39.680Z,45.24
2022-07-26T07:43:13.325Z,45.33
2022-07-26T07:45:48.764Z,45.06
2022-07-26T07:48:22.911Z,45.68
2022-07-26T07:50:56.280Z,45.64
2022-07-26T07:53:30.965Z,45.87
2022-07-26T07:56:05.152Z,46.21
2022-07-26T07:58:39.311Z,45.61
2022-07-26T08:01:13.342Z,46.19
2022-07-26T08:03:50.450Z,46.49
2022-07-26T08:06:24.190Z,46.23
2022-07-26T08:08:57.743Z,46.94
2022-07-26T08:11:31.349Z,47.50
2022-07-26T08:14:07.624Z,47.46
2022-07-26T08:16:45.560Z,47.50
2022-07-26T08:19:19.464Z,47.60
2022-07-26T08:21:56.337Z,47.43
2022-07-26T08:24:30.706Z,47.52
2022-07-26T08:27:03.891Z,47.65
2022-07-26T08:29:37.554Z,47.71
2022-07-26T08:32:11.462Z,47.63
2022-07-26T08:34:44.865Z,47.84
2022-07-26T08:37:18.691Z,47.40
2022-07-26T08:39:52.481Z,47.35
2022-07-26T08:42:26.510Z,47.53
2022-07-26T08:45:01.351Z,47.15
2022-07-26T08:47:37.473Z,47.33
2022-07-26T08:50:14.196Z,47.10
2022-07-26T08:52:48.422Z,47.01
2022-07-26T08:55:22.736Z,46.91
2022-07-26T08:58:06.759Z,46.60
2022-07-26T09:00:41.752Z,46.39
2022-07-26T09:03:28.242Z,46.36
2022-07-26T09:06:14.912Z,46.29
2022-07-26T09:08:50.038Z,46.39
2022-07-26T09:11:36.200Z,46.23
2022-07-26T09:14:09.583Z,46.30
2022-07-26T09:16:43.425Z,46.00
2022-07-26T09:19:23.064Z,45.89
2022-07-26T09:21:58.237Z,45.58
2022-07-26T09:24:41.455Z,45.29
2022-07-26T09:27:17.354Z,45.31
2022-07-26T09:29:53.424Z,45.31
2022-07-26T09:32:28.949Z,45.45
2022-07-26T09:38:16.199Z,45.13
2022-07-26T09:40:50.985Z,45.23
2022-07-26T09:43:25.439Z,45.15
2022-07-26T09:46:11.292Z,45.19
2022-07-26T09:49:09.423Z,45.23
2022-07-26T09:51:45.000Z,45.11
2022-07-26T09:54:33.868Z,44.98
2022-07-26T09:57:07.285Z,45.01
2022-07-26T09:59:41.071Z,44.91
2022-07-26T10:02:15.877Z,45.21
2022-07-26T10:04:49.226Z,45.26
2022-07-26T10:07:22.874Z,45.44
2022-07-26T10:10:11.659Z,45.58
2022-07-26T10:12:47.228Z,45.25
2022-07-26T10:15:36.988Z,45.07
2022-07-26T10:18:16.560Z,44.59
2022-07-26T10:20:54.666Z,44.24
2022-07-26T10:23:45.868Z,44.42
2022-07-26T10:26:42.065Z,44.52
2022-07-26T10:29:28.799Z,44.40
2022-07-26T10:32:21.882Z,44.34
2022-07-26T10:34:55.532Z,44.44
2022-07-26T10:37:30.349Z,44.59
2022-07-26T10:40:30.908Z,44.46
2022-07-26T10:43:39.999Z,44.46
2022-07-26T10:46:29.908Z,43.82
2022-07-26T10:49:04.942Z,44.35
2022-07-26T10:51:40.446Z,44.14
2022-07-26T10:54:16.031Z,44.30
2022-07-26T10:56:49.863Z,44.40
2022-07-26T10:59:54.893Z,44.80
2022-07-26T11:02:34.285Z,44.63
2022-07-26T11:05:14.564Z,43.98
2022-07-26T11:07:56.875Z,44.28
2022-07-26T11:10:32.944Z,44.29
2022-07-26T11:13:09.329Z,44.30
2022-07-26T11:15:44.635Z,44.63
2022-07-26T11:18:24.659Z,44.84
2022-07-26T11:20:59.702Z,44.93
2022-07-26T11:23:35.705Z,44.86
2022-07-26T11:26:17.716Z,45.10
2022-07-26T11:29:06.135Z,45.80
2022-07-26T11:31:51.376Z,45.80
2022-07-26T11:34:35.085Z,46.20
2022-07-26T11:37:08.973Z,45.99
2022-07-26T11:39:42.335Z,46.40
2022-07-26T11:42:20.011Z,46.56
2022-07-26T11:44:54.349Z,46.80
2022-07-26T11:47:28.187Z,47.31
2022-07-26T11:50:22.205Z,47.60
2022-07-26T11:52:56.977Z,47.75
2022-07-26T11:55:32.099Z,48.03
2022-07-26T11:58:09.888Z,48.41
2022-07-26T12:00:44.260Z,48.78
2022-07-26T12:03:17.950Z,48.94
2022-07-26T12:06:05.680Z,49.45
2022-07-26T12:08:46.993Z,49.60
2022-07-26T12:11:25.612Z,49.98
2022-07-26T12:14:01.712Z,50.15
2022-07-26T12:16:48.697Z,50.55
2022-07-26T12:19:32.867Z,51.09
2022-07-26T12:22:14.331Z,51.55
2022-07-26T12:24:57.228Z,51.76
2022-07-26T12:27:32.756Z,51.94
2022-07-26T12:30:19.854Z,52.25
2022-07-26T12:32:55.518Z,52.49
2022-07-26T12:35:36.001Z,52.66
2022-07-26T12:38:09.858Z,53.00
2022-07-26T12:40:45.588Z,53.38
2022-07-26T12:43:19.486Z,53.84
2022-07-26T12:45:53.196Z,54.23
2022-07-26T12:48:26.778Z,55.04
2022-07-26T12:51:02.381Z,56.18
2022-07-26T12:53:39.519Z,57.78
2022-07-26T12:56:13.216Z,58.91
2022-07-26T12:58:47.178Z,59.77
2022-07-26T13:01:20.877Z,60.48
2022-07-26T13:03:54.807Z,61.16
2022-07-26T13:06:28.738Z,61.62
2022-07-26T13:09:03.079Z,62.09
2022-07-26T13:11:36.746Z,62.63
2022-07-26T13:14:10.524Z,63.28
2022-07-26T13:16:47.113Z,63.55
2022-07-26T13:19:20.745Z,63.85
2022-07-26T13:21:54.258Z,64.03
2022-07-26T13:24:28.894Z,64.48
2022-07-26T13:27:03.576Z,64.68
2022-07-26T13:29:37.854Z,64.87
2022-07-26T13:32:11.697Z,65.15
2022-07-26T13:34:45.337Z,65.44
2022-07-26T13:37:18.829Z,65.47
2022-07-26T13:39:52.352Z,65.64
2022-07-26T13:42:26.196Z,66.23
2022-07-26T13:45:00.594Z,66.41
2022-07-26T13:47:33.827Z,66.92
2022-07-26T13:50:08.355Z,67.04
2022-07-26T13:52:42.337Z,67.13
2022-07-26T13:55:15.454Z,66.84
2022-07-26T13:57:57.043Z,66.85
2022-07-26T14:00:32.171Z,67.10
2022-07-26T14:03:05.970Z,66.86
2022-07-26T14:05:39.503Z,67.14
2022-07-26T14:08:12.818Z,67.36
2022-07-26T14:10:46.662Z,67.26
2022-07-26T14:13:20.342Z,67.09
2022-07-26T14:15:53.741Z,67.17
2022-07-26T14:18:27.025Z,67.20
2022-07-26T14:21:00.193Z,67.39
2022-07-26T14:23:34.077Z,67.29
2022-07-26T14:26:07.615Z,67.42
2022-07-26T14:28:41.231Z,67.34
2022-07-26T14:31:15.031Z,67.47
2022-07-26T14:33:49.302Z,67.69
2022-07-26T14:36:22.818Z,67.81
2022-07-26T14:38:56.323Z,67.87
2022-07-26T14:41:30.296Z,68.07
2022-07-26T14:44:05.327Z,68.15
2022-07-26T14:46:38.669Z,68.10
2022-07-26T14:49:12.612Z,68.06
2022-07-26T14:51:48.068Z,67.89
2022-07-26T14:54:22.902Z,67.90
2022-07-26T14:56:57.473Z,68.00
2022-07-26T14:59:30.909Z,68.00
2022-07-26T15:02:05.983Z,68.19
2022-07-26T15:04:40.061Z,67.99
2022-07-26T15:07:13.312Z,67.66
2022-07-26T15:09:46.560Z,67.28
2022-07-26T15:12:19.607Z,67.39
2022-07-26T15:14:52.808Z,67.10
2022-07-26T15:17:26.973Z,66.81
2022-07-26T15:20:00.175Z,66.24
2022-07-26T15:22:33.498Z,66.13
2022-07-26T15:25:08.516Z,65.56
2022-07-26T15:27:42.012Z,65.17
2022-07-26T15:30:16.156Z,65.21
2022-07-26T15:32:50.213Z,65.56
2022-07-26T15:35:23.476Z,65.80
2022-07-26T15:37:56.922Z,65.46
2022-07-26T15:40:30.768Z,65.07
2022-07-26T15:43:04.331Z,64.79
2022-07-26T15:45:41.412Z,64.62
2022-07-26T15:48:20.787Z,64.43
2022-07-26T15:50:55.778Z,64.34
2022-07-26T15:53:29.658Z,64.18
2022-07-26T15:56:03.469Z,64.06
2022-07-26T15:58:36.614Z,63.73
2022-07-26T16:01:09.787Z,63.91
2022-07-26T16:03:42.916Z,63.70
2022-07-26T16:06:16.170Z,63.80
2022-07-26T16:09:14.770Z,63.94
2022-07-26T16:11:42.596Z,63.75
2022-07-26T16:14:16.360Z,63.61
2022-07-26T16:16:49.690Z,63.75
2022-07-26T16:19:22.932Z,63.86
2022-07-26T16:21:56.166Z,63.88
2022-07-26T16:24:29.514Z,63.88
2022-07-26T16:27:02.628Z,64.09
2022-07-26T16:29:35.802Z,64.20
2022-07-26T16:32:11.593Z,64.21
2022-07-26T16:34:44.774Z,64.41
2022-07-26T16:37:18.576Z,64.53
2022-07-26T16:39:52.046Z,64.78
2022-07-26T16:42:25.895Z,64.79
2022-07-26T16:44:59.804Z,64.89
2022-07-26T16:47:33.269Z,65.09
2022-07-26T16:50:07.544Z,65.12
2022-07-26T16:52:41.159Z,65.40
2022-07-26T16:55:16.061Z,65.23
2022-07-26T16:57:49.383Z,65.36
2022-07-26T17:00:22.923Z,65.45
2022-07-26T17:02:55.948Z,65.69
2022-07-26T17:05:29.609Z,65.60
2022-07-26T17:08:03.192Z,65.67
2022-07-26T17:10:36.667Z,65.54
2022-07-26T17:13:10.228Z,65.73
2022-07-26T17:15:43.685Z,65.97
2022-07-26T17:18:17.459Z,65.99
2022-07-26T17:20:50.910Z,65.97
2022-07-26T17:23:24.612Z,65.92
2022-07-26T17:25:58.436Z,66.06
2022-07-26T17:28:31.599Z,66.11
2022-07-26T17:31:05.145Z,66.35
2022-07-26T17:33:38.495Z,66.24
2022-07-26T17:36:25.727Z,66.28
2022-07-26T17:39:02.370Z,66.48
2022-07-26T17:41:36.259Z,66.44
2022-07-26T17:44:10.021Z,66.83
2022-07-26T17:46:43.836Z,66.84
2022-07-26T17:49:17.666Z,66.92
2022-07-26T17:51:56.040Z,66.99
2022-07-26T17:54:30.080Z,66.98
2022-07-26T17:57:04.278Z,67.29
2022-07-26T17:59:37.706Z,66.98
2022-07-26T18:02:11.074Z,66.81
2022-07-26T18:04:44.591Z,66.87
2022-07-26T18:07:18.055Z,67.00
2022-07-26T18:09:51.728Z,66.92
2022-07-26T18:12:25.341Z,67.01
2022-07-26T18:14:59.352Z,67.04
2022-07-26T18:17:36.633Z,67.12
2022-07-26T18:20:13.038Z,67.19
2022-07-26T18:22:50.436Z,67.30
2022-07-26T18:25:24.934Z,67.38
2022-07-26T18:28:00.000Z,67.28
2022-07-26T18:30:37.181Z,67.30
2022-07-26T18:33:13.708Z,67.39
2022-07-26T18:35:47.253Z,67.80
2022-07-26T18:38:21.127Z,67.99
2022-07-26T18:40:55.149Z,68.03
2022-07-26T18:43:28.981Z,67.97
2022-07-26T18:46:05.937Z,67.99
2022-07-26T18:48:41.794Z,67.95
2022-07-26T18:51:16.039Z,68.34
2022-07-26T18:53:50.912Z,68.28
2022-07-26T18:56:25.136Z,68.45
2022-07-26T18:58:58.635Z,68.28
2022-07-26T19:01:32.179Z,68.42
2022-07-26T19:04:07.346Z,68.28
2022-07-26T19:06:41.285Z,68.39
2022-07-26T19:09:14.623Z,68.46
2022-07-26T19:11:48.488Z,68.42
2022-07-26T19:14:22.860Z,68.53
2022-07-26T19:16:56.814Z,68.52
2022-07-26T19:19:31.127Z,68.44
2022-07-26T19:22:05.102Z,68.36
2022-07-26T19:24:48.275Z,68.51
2022-07-26T19:27:23.004Z,68.78
2022-07-26T19:29:59.014Z,68.81
2022-07-26T19:32:33.721Z,68.91
2022-07-26T19:35:09.710Z,68.80
2022-07-26T19:37:43.242Z,68.93
2022-07-26T19:40:16.983Z,69.01
2022-07-26T19:42:50.490Z,69.12
2022-07-26T19:45:24.308Z,69.01
2022-07-26T19:47:57.815Z,69.13
2022-07-26T19:50:31.950Z,69.18
2022-07-26T19:53:05.269Z,69.43
2022-07-26T19:55:41.964Z,69.30
2022-07-26T19:58:15.295Z,69.44
2022-07-26T20:00:49.192Z,69.46
2022-07-26T20:03:23.022Z,69.52
2022-07-26T20:05:57.237Z,69.67
2022-07-26T20:08:30.948Z,69.78
2022-07-26T20:11:05.138Z,69.89
2022-07-26T20:13:38.606Z,69.79
2022-07-26T20:16:12.240Z,69.97
2022-07-26T20:18:46.345Z,69.92
2022-07-26T20:21:19.914Z,69.97
2022-07-26T20:23:53.795Z,70.21
2022-07-26T20:26:27.241Z,70.22
2022-07-26T20:29:01.041Z,70.33
2022-07-26T20:31:34.757Z,70.48
2022-07-26T20:34:08.497Z,70.49
2022-07-26T20:36:42.742Z,70.58
2022-07-26T20:39:17.068Z,70.43
2022-07-26T20:41:51.062Z,70.48
2022-07-26T20:44:28.573Z,70.54
2022-07-26T20:47:02.815Z,70.51
2022-07-26T20:49:36.964Z,70.54
2022-07-26T20:52:10.952Z,70.65
2022-07-26T20:54:44.592Z,70.70
2022-07-26T20:57:18.008Z,70.67
2022-07-26T20:59:51.531Z,70.72
2022-07-26T21:02:24.994Z,70.63
2022-07-26T21:04:59.111Z,70.82
2022-07-26T21:07:57.373Z,70.81
2022-07-26T21:10:26.988Z,70.88
2022-07-26T21:13:01.327Z,70.87
2022-07-26T21:15:35.044Z,70.89
2022-07-26T21:18:09.219Z,70.78
2022-07-26T21:20:46.175Z,70.91
2022-07-26T21:23:19.286Z,71.05
2022-07-26T21:25:58.040Z,71.00
2022-07-26T21:28:35.293Z,71.06
2022-07-26T21:31:08.652Z,70.97
2022-07-26T21:33:44.593Z,70.96
2022-07-26T21:36:17.940Z,71.08
2022-07-26T21:38:51.803Z,71.10
2022-07-26T21:41:25.188Z,71.25
2022-07-26T21:43:58.756Z,71.17
2022-07-26T21:46:32.914Z,71.19
2022-07-26T21:49:06.729Z,71.01
2022-07-26T21:51:40.681Z,71.04
2022-07-26T21:54:13.991Z,70.95
2022-07-26T21:56:47.795Z,71.16
2022-07-26T21:59:21.469Z,71.18
2022-07-26T22:01:54.841Z,71.27
2022-07-26T22:04:28.196Z,71.32
2022-07-26T22:07:01.648Z,71.37
2022-07-26T22:09:34.877Z,71.42
2022-07-26T22:12:09.055Z,71.30
2022-07-26T22:14:42.252Z,71.34
2022-07-26T22:17:15.814Z,71.19
2022-07-26T22:19:49.459Z,71.26
2022-07-26T22:22:22.923Z,71.30
2022-07-26T22:24:56.986Z,71.19
2022-07-26T22:27:30.793Z,71.18
2022-07-26T22:30:04.424Z,71.37
2022-07-26T22:32:38.411Z,71.35
2022-07-26T22:35:13.008Z,71.33
2022-07-26T22:37:46.393Z,71.46
2022-07-26T22:40:19.902Z,71.47
2022-07-26T22:42:53.592Z,71.38
2022-07-26T22:45:27.598Z,71.46
2022-07-26T22:48:03.039Z,71.16
2022-07-26T22:50:37.295Z,71.28
2022-07-26T22:53:11.216Z,71.32
2022-07-26T22:55:44.914Z,71.18
2022-07-26T22:58:18.456Z,71.28
2022-07-26T23:00:52.183Z,71.25
2022-07-26T23:03:25.743Z,71.30
2022-07-26T23:06:01.376Z,71.42
2022-07-26T23:08:50.526Z,71.49
2022-07-26T23:11:24.176Z,71.53
2022-07-26T23:13:59.093Z,71.47
2022-07-26T23:16:32.798Z,71.56
2022-07-26T23:19:06.419Z,71.54
2022-07-26T23:21:40.214Z,71.54
2022-07-26T23:24:13.675Z,71.62
2022-07-26T23:26:46.937Z,71.43
2022-07-26T23:29:20.559Z,71.40
2022-07-26T23:31:53.793Z,71.49
2022-07-26T23:34:27.122Z,71.40
2022-07-26T23:37:00.823Z,71.41
2022-07-26T23:39:34.477Z,71.70
2022-07-26T23:42:08.646Z,71.64
2022-07-26T23:44:42.093Z,71.54
2022-07-26T23:47:16.023Z,71.56
2022-07-26T23:49:49.213Z,71.64
2022-07-26T23:52:23.758Z,71.84
2022-07-26T23:54:59.214Z,72.06
2022-07-26T23:57:32.648Z,72.17
